ASA65 PAWG-PAPG
Flight info
| Callsign | ASA65 |
|---|---|
| Flight time | 0h 11m |
| Altitude | 10000 |
| Route | LVD3 LVD |
| Aircraft | A21N/M-SDE3FGHIRWY/LB1 |
Departure
| Time | 2026-05-08 00:09 |
|---|---|
| Airport | Wrangell Airport (PAWG) |
Arrival
| Time | 2026-05-08 00:21 |
|---|---|
| Airport | Petersburg James A Johnson Airport (PAPG) |
| Time | Latitude | Longitude | Altitude | Speed | Heading |
|---|---|---|---|---|---|
| 2026-05-08 00:02 | 56.48540 | -132.37915 | 36 ft | 0 kts | 299° |
| 2026-05-08 00:06 | 56.48542 | -132.37920 | 37 ft | 1 kts | 304° |
| 2026-05-08 00:06 | 56.48575 | -132.37930 | 35 ft | 9 kts | 17° |
| 2026-05-08 00:06 | 56.48647 | -132.37849 | 30 ft | 15 kts | 31° |
| 2026-05-08 00:07 | 56.48722 | -132.37845 | 26 ft | 11 kts | 301° |
| 2026-05-08 00:07 | 56.48763 | -132.37965 | 27 ft | 10 kts | 301° |
| 2026-05-08 00:07 | 56.48797 | -132.38068 | 30 ft | 8 kts | 301° |
| 2026-05-08 00:07 | 56.48825 | -132.38152 | 32 ft | 7 kts | 301° |
| 2026-05-08 00:08 | 56.48855 | -132.38196 | 33 ft | 4 kts | 329° |
| 2026-05-08 00:08 | 56.48854 | -132.38211 | 34 ft | 1 kts | 192° |
| 2026-05-08 00:08 | 56.48835 | -132.38178 | 33 ft | 14 kts | 125° |
| 2026-05-08 00:08 | 56.48601 | -132.37482 | 27 ft | 113 kts | 121° |
| 2026-05-08 00:09 | 56.48069 | -132.35902 | 287 ft | 165 kts | 120° |
| 2026-05-08 00:09 | 56.47724 | -132.34061 | 1252 ft | 157 kts | 84° |
| 2026-05-08 00:09 | 56.48207 | -132.32461 | 2117 ft | 151 kts | 33° |
| 2026-05-08 00:09 | 56.49223 | -132.32216 | 2673 ft | 161 kts | 341° |
| 2026-05-08 00:10 | 56.50200 | -132.33362 | 3217 ft | 176 kts | 326° |
| 2026-05-08 00:10 | 56.51310 | -132.34370 | 3757 ft | 187 kts | 337° |
| 2026-05-08 00:10 | 56.52454 | -132.35660 | 4278 ft | 203 kts | 322° |
| 2026-05-08 00:10 | 56.53544 | -132.37411 | 4624 ft | 222 kts | 318° |
| 2026-05-08 00:11 | 56.54710 | -132.39374 | 4730 ft | 232 kts | 318° |
| 2026-05-08 00:11 | 56.55930 | -132.41293 | 4728 ft | 233 kts | 323° |
| 2026-05-08 00:11 | 56.57222 | -132.43018 | 4729 ft | 232 kts | 326° |
| 2026-05-08 00:11 | 56.58524 | -132.44711 | 4725 ft | 227 kts | 325° |
| 2026-05-08 00:12 | 56.59772 | -132.46349 | 4716 ft | 212 kts | 325° |
| 2026-05-08 00:12 | 56.60900 | -132.47850 | 4794 ft | 193 kts | 325° |
| 2026-05-08 00:12 | 56.61972 | -132.49283 | 4760 ft | 191 kts | 325° |
| 2026-05-08 00:12 | 56.63029 | -132.50705 | 4744 ft | 191 kts | 324° |
| 2026-05-08 00:13 | 56.64100 | -132.52155 | 4637 ft | 191 kts | 324° |
| 2026-05-08 00:13 | 56.65140 | -132.53572 | 4456 ft | 183 kts | 324° |
| 2026-05-08 00:13 | 56.66128 | -132.54932 | 4250 ft | 174 kts | 324° |
| 2026-05-08 00:13 | 56.67067 | -132.56235 | 3987 ft | 169 kts | 324° |
| 2026-05-08 00:14 | 56.67989 | -132.57530 | 3697 ft | 165 kts | 323° |
| 2026-05-08 00:14 | 56.68870 | -132.58778 | 3465 ft | 158 kts | 323° |
| 2026-05-08 00:14 | 56.69706 | -132.59973 | 3271 ft | 150 kts | 323° |
| 2026-05-08 00:14 | 56.70518 | -132.61148 | 3120 ft | 149 kts | 323° |
| 2026-05-08 00:15 | 56.71326 | -132.62328 | 3055 ft | 149 kts | 323° |
| 2026-05-08 00:15 | 56.72139 | -132.63524 | 3000 ft | 149 kts | 323° |
| 2026-05-08 00:15 | 56.72942 | -132.64716 | 2944 ft | 149 kts | 323° |
| 2026-05-08 00:15 | 56.73740 | -132.65872 | 2892 ft | 149 kts | 325° |
| 2026-05-08 00:16 | 56.74588 | -132.66994 | 2841 ft | 149 kts | 325° |
| 2026-05-08 00:16 | 56.75417 | -132.68111 | 2796 ft | 149 kts | 325° |
| 2026-05-08 00:16 | 56.76252 | -132.69196 | 2752 ft | 148 kts | 327° |
| 2026-05-08 00:16 | 56.77108 | -132.70248 | 2721 ft | 146 kts | 328° |
| 2026-05-08 00:17 | 56.77926 | -132.71257 | 2679 ft | 140 kts | 325° |
| 2026-05-08 00:17 | 56.78643 | -132.72414 | 2524 ft | 138 kts | 314° |
| 2026-05-08 00:17 | 56.79216 | -132.73813 | 2362 ft | 138 kts | 300° |
| 2026-05-08 00:17 | 56.79606 | -132.75406 | 2194 ft | 137 kts | 292° |
| 2026-05-08 00:18 | 56.79934 | -132.77028 | 2023 ft | 136 kts | 291° |
| 2026-05-08 00:18 | 56.80222 | -132.78654 | 1898 ft | 136 kts | 289° |
| 2026-05-08 00:18 | 56.80489 | -132.80306 | 1779 ft | 136 kts | 287° |
| 2026-05-08 00:18 | 56.80708 | -132.81987 | 1596 ft | 136 kts | 284° |
| 2026-05-08 00:19 | 56.80882 | -132.83696 | 1419 ft | 137 kts | 281° |
| 2026-05-08 00:19 | 56.81023 | -132.85411 | 1190 ft | 137 kts | 278° |
| 2026-05-08 00:19 | 56.81110 | -132.87122 | 878 ft | 137 kts | 273° |
| 2026-05-08 00:19 | 56.81072 | -132.88879 | 672 ft | 138 kts | 264° |
| 2026-05-08 00:20 | 56.80902 | -132.90593 | 425 ft | 138 kts | 255° |
| 2026-05-08 00:20 | 56.80603 | -132.92241 | 211 ft | 138 kts | 251° |
| 2026-05-08 00:20 | 56.80287 | -132.93890 | 85 ft | 133 kts | 251° |
| 2026-05-08 00:20 | 56.80063 | -132.95059 | 81 ft | 55 kts | 251° |
| 2026-05-08 00:21 | 56.80021 | -132.95311 | 84 ft | 6 kts | 280° |
| 2026-05-08 00:21 | 56.80015 | -132.95332 | 85 ft | 1 kts | 167° |
| 2026-05-08 00:21 | 56.80027 | -132.95212 | 82 ft | 16 kts | 68° |
| 2026-05-08 00:21 | 56.80072 | -132.95010 | 80 ft | 18 kts | 70° |
| 2026-05-08 00:22 | 56.80116 | -132.94783 | 77 ft | 19 kts | 71° |
| 2026-05-08 00:22 | 56.80160 | -132.94551 | 76 ft | 19 kts | 70° |
| 2026-05-08 00:22 | 56.80203 | -132.94328 | 78 ft | 17 kts | 71° |
| 2026-05-08 00:22 | 56.80242 | -132.94119 | 77 ft | 17 kts | 71° |
| 2026-05-08 00:23 | 56.80283 | -132.93906 | 78 ft | 17 kts | 71° |
| 2026-05-08 00:23 | 56.80320 | -132.93716 | 81 ft | 14 kts | 71° |
| 2026-05-08 00:23 | 56.80353 | -132.93543 | 82 ft | 14 kts | 70° |
| 2026-05-08 00:23 | 56.80401 | -132.93394 | 84 ft | 12 kts | 24° |
| 2026-05-08 00:24 | 56.80480 | -132.93401 | 83 ft | 9 kts | 342° |
| 2026-05-08 00:24 | 56.80543 | -132.93401 | 81 ft | 10 kts | 63° |
| 2026-05-08 00:24 | 56.80557 | -132.93323 | 82 ft | 2 kts | 70° |
| 2026-05-08 00:24 | 56.80560 | -132.93309 | 82 ft | 0 kts | 70° |